createdAt,value
2022-11-05T00:00:59.639Z,75939.59
2022-11-05T00:03:44.919Z,75947.75
2022-11-05T00:06:30.137Z,75933.47
2022-11-05T00:09:16.705Z,75935.50
2022-11-05T00:12:01.846Z,75943.66
2022-11-05T00:14:47.707Z,75943.66
2022-11-05T00:17:15.514Z,75947.75
2022-11-05T00:19:43.315Z,75945.69
2022-11-05T00:22:28.384Z,75949.78
2022-11-05T00:25:16.775Z,75951.81
2022-11-05T00:27:49.974Z,75949.78
2022-11-05T00:30:20.313Z,75968.13
2022-11-05T00:32:49.818Z,75964.06
2022-11-05T00:35:19.648Z,75974.25
2022-11-05T00:37:50.248Z,75968.13
2022-11-05T00:40:20.061Z,75955.91
2022-11-05T00:43:05.309Z,75964.06
2022-11-05T00:45:33.215Z,75980.34
2022-11-05T00:48:18.436Z,75982.41
2022-11-05T00:50:46.230Z,75982.41
2022-11-05T00:53:14.438Z,75978.31
2022-11-05T00:55:45.959Z,75978.31
2022-11-05T00:58:15.251Z,75976.28
2022-11-05T01:00:44.612Z,75978.31
2022-11-05T01:03:14.917Z,75972.22
2022-11-05T01:05:44.802Z,75984.44
2022-11-05T01:08:13.230Z,75982.41
2022-11-05T01:10:44.171Z,75988.50
2022-11-05T01:13:13.689Z,75996.66
2022-11-05T01:15:42.053Z,76002.78
2022-11-05T01:18:10.308Z,76006.88
2022-11-05T01:20:38.421Z,76002.78
2022-11-05T01:23:13.011Z,76000.75
2022-11-05T01:25:42.804Z,75980.34
2022-11-05T01:28:11.291Z,75972.22
2022-11-05T01:30:39.821Z,75972.22
2022-11-05T01:33:08.522Z,75976.28
2022-11-05T01:35:36.560Z,75976.28
2022-11-05T01:38:04.348Z,75984.44
2022-11-05T01:40:32.276Z,76000.75
2022-11-05T01:43:01.401Z,76017.06
2022-11-05T01:45:29.436Z,76019.09
2022-11-05T01:48:07.803Z,76021.13
2022-11-05T01:50:43.832Z,76025.22
2022-11-05T01:53:20.492Z,76021.13
2022-11-05T01:55:53.676Z,76023.19
2022-11-05T01:58:27.707Z,76025.22
2022-11-05T02:00:57.335Z,76033.38
2022-11-05T02:03:26.391Z,76029.28
2022-11-05T02:05:57.261Z,76023.19
2022-11-05T02:08:36.127Z,76029.28
2022-11-05T02:11:05.279Z,76025.22
2022-11-05T02:13:34.503Z,76029.28
2022-11-05T02:16:11.040Z,76021.13
2022-11-05T02:18:52.547Z,76010.94
2022-11-05T02:21:43.905Z,76017.06
2022-11-05T02:24:38.928Z,76023.19
2022-11-05T02:27:17.289Z,76029.28
2022-11-05T02:30:06.174Z,76033.38
2022-11-05T02:32:57.395Z,76037.44
2022-11-05T02:35:41.640Z,76029.28
2022-11-05T02:38:14.189Z,76033.38
2022-11-05T02:40:51.037Z,76033.38
2022-11-05T02:43:29.638Z,76029.28
2022-11-05T02:46:04.498Z,76025.22
2022-11-05T02:48:45.706Z,76025.22
2022-11-05T02:51:23.471Z,76017.06
2022-11-05T02:53:58.577Z,76025.22
2022-11-05T02:56:32.300Z,76012.97
2022-11-05T02:59:00.162Z,76029.28
2022-11-05T03:01:28.068Z,76019.09
2022-11-05T03:04:00.547Z,76008.91
2022-11-05T03:07:05.885Z,76017.06
2022-11-05T03:09:50.462Z,76021.13
2022-11-05T03:12:27.989Z,76025.22
2022-11-05T03:15:03.868Z,76033.38
2022-11-05T03:17:38.486Z,76053.75
2022-11-05T03:20:17.900Z,76053.75
2022-11-05T03:22:52.716Z,76053.75
2022-11-05T03:25:23.599Z,76053.75
2022-11-05T03:27:56.862Z,76066.00
2022-11-05T03:30:25.429Z,76070.06
2022-11-05T03:32:59.288Z,76061.91
2022-11-05T03:35:32.451Z,76066.00
2022-11-05T03:38:05.001Z,76068.03
2022-11-05T03:40:35.269Z,76066.00
2022-11-05T03:43:06.630Z,76057.84
2022-11-05T03:45:38.566Z,76066.00
2022-11-05T03:48:10.466Z,76066.00
2022-11-05T03:50:44.182Z,76066.00
2022-11-05T03:53:18.059Z,76070.06
2022-11-05T03:55:50.679Z,76066.00
2022-11-05T03:58:20.872Z,76070.06
2022-11-05T04:00:49.684Z,76074.16
2022-11-05T04:03:17.557Z,76078.22
2022-11-05T04:06:07.292Z,76078.22
2022-11-05T04:08:52.527Z,76090.44
2022-11-05T04:11:37.565Z,76090.44
2022-11-05T04:14:05.359Z,76092.50
2022-11-05T04:16:50.433Z,76094.53
2022-11-05T04:19:38.184Z,76096.56
2022-11-05T04:22:24.579Z,76096.56
2022-11-05T04:24:52.372Z,76094.53
2022-11-05T04:27:20.206Z,76092.50
2022-11-05T04:30:05.341Z,76080.25
2022-11-05T04:32:33.133Z,76082.28
2022-11-05T04:35:00.930Z,76074.16
2022-11-05T04:37:30.101Z,76068.03
2022-11-05T04:39:57.934Z,76070.06
2022-11-05T04:42:25.881Z,76063.94
2022-11-05T04:44:53.668Z,76061.91
2022-11-05T04:47:21.509Z,76061.91
2022-11-05T04:49:49.261Z,76080.25
2022-11-05T04:52:17.967Z,76078.22
2022-11-05T04:54:47.184Z,76078.22
2022-11-05T04:57:15.000Z,76086.38
2022-11-05T04:59:42.998Z,76100.66
2022-11-05T05:02:10.959Z,76106.75
2022-11-05T05:04:38.789Z,76123.06
2022-11-05T05:07:06.577Z,76114.91
2022-11-05T05:09:34.375Z,76119.00
2022-11-05T05:12:03.585Z,76114.91
2022-11-05T05:14:31.355Z,76112.88
2022-11-05T05:16:59.184Z,76127.16
2022-11-05T05:19:27.481Z,76139.38
2022-11-05T05:21:54.272Z,76139.38
2022-11-05T05:24:24.964Z,76141.41
2022-11-05T05:26:53.056Z,76139.38
2022-11-05T05:29:22.198Z,76147.53
2022-11-05T05:31:50.025Z,76147.53
2022-11-05T05:34:17.893Z,76145.50
2022-11-05T05:36:45.705Z,76147.53
2022-11-05T05:39:14.427Z,76151.63
2022-11-05T05:41:42.222Z,76149.56
2022-11-05T05:44:10.036Z,76151.63
2022-11-05T05:46:39.260Z,76155.69
2022-11-05T05:49:12.185Z,76155.69
2022-11-05T05:51:40.464Z,76147.53
2022-11-05T05:54:08.289Z,76159.78
2022-11-05T05:56:36.056Z,76163.84
2022-11-05T05:59:03.926Z,76167.94
2022-11-05T06:01:31.847Z,76174.03
2022-11-05T06:04:01.091Z,76180.16
2022-11-05T06:06:28.970Z,76180.16
2022-11-05T06:08:57.118Z,76182.19
2022-11-05T06:11:25.742Z,76188.31
2022-11-05T06:13:53.803Z,76190.34
2022-11-05T06:16:21.651Z,76188.31
2022-11-05T06:18:49.614Z,76188.31
2022-11-05T06:21:19.093Z,76182.19
2022-11-05T06:23:48.314Z,76172.00
2022-11-05T06:26:17.940Z,76176.09
2022-11-05T06:28:46.670Z,76180.16
2022-11-05T06:31:15.459Z,76172.00
2022-11-05T06:33:43.283Z,76180.16
2022-11-05T06:36:15.714Z,76182.19
2022-11-05T06:38:45.068Z,76178.13
2022-11-05T06:41:13.045Z,76176.09
2022-11-05T06:43:40.857Z,76176.09
2022-11-05T06:46:10.491Z,76178.13
2022-11-05T06:48:39.087Z,76172.00
2022-11-05T06:51:08.520Z,76174.03
2022-11-05T06:53:37.144Z,76176.09
2022-11-05T06:56:08.272Z,76172.00
2022-11-05T06:58:36.420Z,76182.19
2022-11-05T07:01:05.545Z,76198.50
2022-11-05T07:03:33.447Z,76196.47
2022-11-05T07:06:01.700Z,76204.63
2022-11-05T07:08:32.318Z,76206.66
2022-11-05T07:11:01.015Z,76204.63
2022-11-05T07:13:30.195Z,76204.63
2022-11-05T07:15:58.022Z,76200.56
2022-11-05T07:18:26.164Z,76192.41
2022-11-05T07:20:53.968Z,76190.34
2022-11-05T07:23:21.792Z,76192.41
2022-11-05T07:25:49.853Z,76192.41
2022-11-05T07:28:17.625Z,76188.31
2022-11-05T07:30:48.201Z,76188.31
2022-11-05T07:33:16.136Z,76198.50
2022-11-05T07:35:43.883Z,76198.50
2022-11-05T07:38:12.236Z,76196.47
2022-11-05T07:40:40.088Z,76192.41
2022-11-05T07:43:07.967Z,76192.41
2022-11-05T07:45:35.823Z,76196.47
2022-11-05T07:48:05.944Z,76188.31
2022-11-05T07:50:36.472Z,76190.34
2022-11-05T07:53:06.875Z,76192.41
2022-11-05T07:55:35.422Z,76192.41
2022-11-05T07:58:03.698Z,76188.31
2022-11-05T08:00:32.110Z,76188.31
2022-11-05T08:03:07.396Z,76184.25
2022-11-05T08:05:39.478Z,76188.31
2022-11-05T08:08:09.203Z,76180.16
2022-11-05T08:10:37.901Z,76180.16
2022-11-05T08:13:06.694Z,76172.00
2022-11-05T08:15:35.382Z,76172.00
2022-11-05T08:18:04.828Z,76172.00
2022-11-05T08:20:33.185Z,76155.69
2022-11-05T08:23:02.390Z,76167.94
2022-11-05T08:25:30.618Z,76163.84
2022-11-05T08:27:59.902Z,76159.78
2022-11-05T08:30:28.232Z,76149.56
2022-11-05T08:32:58.218Z,76159.78
2022-11-05T08:35:26.345Z,76165.88
2022-11-05T08:37:58.014Z,76155.69
2022-11-05T08:40:27.318Z,76155.69
2022-11-05T08:42:57.725Z,76151.63
2022-11-05T08:45:25.829Z,76155.69
2022-11-05T08:47:59.852Z,76145.50
2022-11-05T08:50:27.727Z,76141.41
2022-11-05T08:52:55.600Z,76141.41
2022-11-05T08:55:23.366Z,76141.41
2022-11-05T08:57:57.636Z,76127.16
2022-11-05T09:00:26.272Z,76127.16
2022-11-05T09:02:54.114Z,76127.16
2022-11-05T09:05:21.903Z,76119.00
2022-11-05T09:07:49.804Z,76114.91
2022-11-05T09:10:17.789Z,76116.97
2022-11-05T09:12:45.677Z,76094.53
2022-11-05T09:15:15.024Z,76078.22
2022-11-05T09:17:42.913Z,76076.19
2022-11-05T09:20:13.261Z,76072.09
2022-11-05T09:22:43.447Z,76082.28
2022-11-05T09:25:11.467Z,76078.22
2022-11-05T09:27:39.276Z,76074.16
2022-11-05T09:30:08.309Z,76074.16
2022-11-05T09:32:37.465Z,76066.00
2022-11-05T09:35:06.185Z,76066.00
2022-11-05T09:37:34.154Z,76057.84
2022-11-05T09:40:01.956Z,76061.91
2022-11-05T09:42:32.872Z,76068.03
2022-11-05T09:45:04.161Z,76072.09
2022-11-05T09:47:35.392Z,76076.19
2022-11-05T09:50:10.169Z,76066.00
2022-11-05T09:52:38.034Z,76061.91
2022-11-05T09:55:15.701Z,76063.94
2022-11-05T09:57:48.710Z,76037.44
2022-11-05T10:00:17.566Z,76025.22
2022-11-05T10:02:51.022Z,76029.28
2022-11-05T10:05:22.036Z,76017.06
2022-11-05T10:07:52.354Z,76008.91
2022-11-05T10:10:34.175Z,76004.81
2022-11-05T10:13:13.766Z,76004.81
2022-11-05T10:15:54.691Z,76012.97
2022-11-05T10:18:29.002Z,76006.88
2022-11-05T10:20:58.325Z,75988.50
2022-11-05T10:23:28.179Z,75976.28
2022-11-05T10:25:58.952Z,75953.84
2022-11-05T10:28:28.241Z,75955.91
2022-11-05T10:30:59.745Z,75953.84
2022-11-05T10:33:33.571Z,75949.78
2022-11-05T10:36:06.792Z,75941.63
2022-11-05T10:38:34.935Z,75923.28
2022-11-05T10:41:22.417Z,75915.13
2022-11-05T10:43:52.425Z,75898.81
2022-11-05T10:46:29.564Z,75927.34
2022-11-05T10:49:12.027Z,75923.28
2022-11-05T10:51:41.209Z,75931.44
2022-11-05T10:54:14.985Z,75943.66
2022-11-05T10:56:42.928Z,75931.44
2022-11-05T10:59:22.358Z,75909.00
2022-11-05T11:01:57.951Z,75894.75
2022-11-05T11:04:27.938Z,75876.38
2022-11-05T11:06:59.977Z,75886.56
2022-11-05T11:09:29.872Z,75878.44
2022-11-05T11:12:02.919Z,75884.53
2022-11-05T11:14:31.250Z,75911.03
2022-11-05T11:17:22.901Z,75927.34
2022-11-05T11:19:51.359Z,75935.50
2022-11-05T11:22:22.380Z,75947.75
2022-11-05T11:24:53.817Z,75968.13
2022-11-05T11:27:25.113Z,75978.31
2022-11-05T11:29:58.391Z,76004.81
2022-11-05T11:32:32.992Z,76000.75
2022-11-05T11:35:01.239Z,76010.94
2022-11-05T11:37:34.064Z,75998.72
2022-11-05T11:40:06.679Z,76012.97
2022-11-05T11:42:37.428Z,76012.97
2022-11-05T11:45:08.423Z,76002.78
2022-11-05T11:47:36.640Z,76008.91
2022-11-05T11:50:04.628Z,76012.97
2022-11-05T11:52:35.961Z,76010.94
2022-11-05T11:55:23.044Z,76008.91
2022-11-05T11:57:52.517Z,76008.91
2022-11-05T12:00:24.115Z,75998.72
2022-11-05T12:03:05.050Z,76008.91
2022-11-05T12:05:41.478Z,76000.75
2022-11-05T12:08:36.717Z,76002.78
2022-11-05T12:11:10.960Z,76000.75
2022-11-05T12:14:02.327Z,76010.94
2022-11-05T12:16:58.786Z,76015.03
2022-11-05T12:19:40.233Z,76019.09
2022-11-05T12:22:18.715Z,76029.28
2022-11-05T12:25:04.649Z,76037.44
2022-11-05T12:27:48.869Z,76041.53
2022-11-05T12:30:18.609Z,76041.53
2022-11-05T12:33:22.332Z,76031.31
2022-11-05T12:36:04.442Z,76033.38
2022-11-05T12:38:55.124Z,76027.25
2022-11-05T12:41:28.957Z,76029.28
2022-11-05T12:44:15.302Z,76027.25
2022-11-05T12:46:50.292Z,76033.38
2022-11-05T12:49:34.604Z,76027.25
2022-11-05T12:52:17.744Z,76008.91
2022-11-05T12:54:59.510Z,76000.75
2022-11-05T12:57:30.843Z,75982.41
2022-11-05T13:00:06.453Z,75968.13
2022-11-05T13:02:40.757Z,75968.13
2022-11-05T13:05:16.608Z,75964.06
2022-11-05T13:07:50.463Z,75964.06
2022-11-05T13:10:26.741Z,75970.16
2022-11-05T13:13:01.354Z,75972.22
2022-11-05T13:15:34.729Z,75955.91
2022-11-05T13:18:06.688Z,75945.69
2022-11-05T13:20:39.782Z,75953.84
2022-11-05T13:23:19.982Z,75955.91
2022-11-05T13:25:54.341Z,75955.91
2022-11-05T13:28:34.689Z,75953.84
2022-11-05T13:31:07.444Z,75951.81
2022-11-05T13:33:39.480Z,75959.97
2022-11-05T13:36:28.544Z,75980.34
2022-11-05T13:39:09.143Z,75988.50
2022-11-05T13:41:49.420Z,75984.44
2022-11-05T13:44:45.094Z,75980.34
2022-11-05T13:47:31.422Z,75988.50
2022-11-05T13:50:25.047Z,75996.66
2022-11-05T13:53:10.712Z,75996.66
2022-11-05T13:55:54.843Z,75992.59
2022-11-05T13:58:37.939Z,76012.97
2022-11-05T14:01:17.850Z,76006.88
2022-11-05T14:03:48.765Z,76017.06
2022-11-05T14:06:25.722Z,76008.91
2022-11-05T14:08:59.616Z,76025.22
2022-11-05T14:11:31.138Z,76029.28
2022-11-05T14:14:02.092Z,76041.53
2022-11-05T14:16:48.995Z,76021.13
2022-11-05T14:19:36.893Z,76033.38
2022-11-05T14:22:36.307Z,76029.28
2022-11-05T14:25:42.669Z,76033.38
2022-11-05T14:28:42.489Z,76033.38
2022-11-05T14:31:47.349Z,76031.31
2022-11-05T14:34:24.920Z,76045.59
2022-11-05T14:37:22.740Z,76061.91
2022-11-05T14:39:51.365Z,76070.06
2022-11-05T14:42:23.605Z,76078.22
2022-11-05T14:45:01.996Z,76090.44
2022-11-05T14:47:32.895Z,76100.66
2022-11-05T14:50:09.438Z,76116.97
2022-11-05T14:52:39.131Z,76127.16
2022-11-05T14:55:23.309Z,76139.38
2022-11-05T14:58:07.595Z,76145.50
2022-11-05T15:00:47.861Z,76155.69
2022-11-05T15:03:47.371Z,76159.78
2022-11-05T15:06:26.210Z,76165.88
2022-11-05T15:09:18.103Z,76172.00
2022-11-05T15:11:58.346Z,76188.31
2022-11-05T15:14:31.617Z,76178.13
2022-11-05T15:17:05.328Z,76188.31
2022-11-05T15:19:37.000Z,76194.44
2022-11-05T15:22:13.497Z,76184.25
2022-11-05T15:24:43.441Z,76192.41
2022-11-05T15:27:20.121Z,76198.50
2022-11-05T15:29:47.996Z,76188.31
2022-11-05T15:32:18.437Z,76204.63
2022-11-05T15:34:52.528Z,76212.78
2022-11-05T15:37:26.982Z,76216.84
2022-11-05T15:39:56.037Z,76225.00
2022-11-05T15:42:26.438Z,76220.94
2022-11-05T15:44:56.144Z,76225.00
2022-11-05T15:47:26.048Z,76237.25
2022-11-05T15:49:56.185Z,76241.31
2022-11-05T15:52:32.677Z,76249.47
2022-11-05T15:55:19.784Z,76261.72
2022-11-05T15:57:51.349Z,76265.78
2022-11-05T16:00:21.371Z,76265.78
2022-11-05T16:02:55.772Z,76253.56
2022-11-05T16:05:25.686Z,76265.78
2022-11-05T16:07:55.306Z,76271.91
2022-11-05T16:10:25.845Z,76276.00
2022-11-05T16:12:53.682Z,76273.94
2022-11-05T16:15:24.809Z,76273.94
2022-11-05T16:17:55.286Z,76278.03
2022-11-05T16:20:32.018Z,76273.94
2022-11-05T16:23:03.570Z,76282.09
2022-11-05T16:25:38.124Z,76278.03
2022-11-05T16:28:08.603Z,76278.03
2022-11-05T16:30:36.480Z,76278.03
2022-11-05T16:33:07.151Z,76278.03
2022-11-05T16:35:39.864Z,76282.09
2022-11-05T16:38:13.056Z,76290.25
2022-11-05T16:40:41.109Z,76286.19
2022-11-05T16:43:17.089Z,76294.34
2022-11-05T16:45:45.161Z,76292.28
2022-11-05T16:48:13.882Z,76294.34
2022-11-05T16:50:42.898Z,76300.47
2022-11-05T16:53:12.129Z,76300.47
2022-11-05T16:55:43.480Z,76302.50
2022-11-05T16:58:19.609Z,76302.50
2022-11-05T17:00:48.257Z,76298.41
2022-11-05T17:03:16.122Z,76302.50
2022-11-05T17:05:44.156Z,76308.59
2022-11-05T17:08:13.758Z,76314.72
2022-11-05T17:10:41.895Z,76314.72
2022-11-05T17:13:11.215Z,76322.88
2022-11-05T17:15:39.046Z,76322.88
2022-11-05T17:18:07.065Z,76326.97
2022-11-05T17:20:40.634Z,76322.88
2022-11-05T17:23:11.134Z,76314.72
2022-11-05T17:25:41.718Z,76331.03
2022-11-05T17:28:10.591Z,76318.81
2022-11-05T17:30:41.426Z,76324.91
2022-11-05T17:33:10.966Z,76322.88
2022-11-05T17:35:40.037Z,76329.00
2022-11-05T17:38:07.867Z,76329.00
2022-11-05T17:40:36.922Z,76333.06
2022-11-05T17:43:07.295Z,76337.16
2022-11-05T17:45:35.393Z,76333.06
2022-11-05T17:48:03.382Z,76331.03
2022-11-05T17:50:33.668Z,76341.22
2022-11-05T17:53:01.432Z,76333.06
2022-11-05T17:55:29.284Z,76331.03
2022-11-05T17:57:57.099Z,76333.06
2022-11-05T18:00:26.875Z,76341.22
2022-11-05T18:02:55.270Z,76347.34
2022-11-05T18:05:24.104Z,76343.28
2022-11-05T18:07:52.020Z,76339.19
2022-11-05T18:10:19.869Z,76343.28
2022-11-05T18:12:48.453Z,76345.31
2022-11-05T18:15:16.647Z,76351.44
2022-11-05T18:17:46.652Z,76355.50
2022-11-05T18:20:19.135Z,76353.47
2022-11-05T18:22:50.074Z,76359.59
2022-11-05T18:25:18.971Z,76355.50
2022-11-05T18:27:47.027Z,76355.50
2022-11-05T18:30:15.941Z,76359.59
2022-11-05T18:32:45.526Z,76359.59
2022-11-05T18:35:14.533Z,76363.66
2022-11-05T18:37:42.808Z,76359.59
2022-11-05T18:40:11.986Z,76355.50
2022-11-05T18:42:40.306Z,76351.44
2022-11-05T18:45:09.948Z,76355.50
2022-11-05T18:47:37.753Z,76355.50
2022-11-05T18:50:09.308Z,76363.66
2022-11-05T18:52:37.194Z,76363.66
2022-11-05T18:55:05.602Z,76365.69
2022-11-05T18:57:34.493Z,76375.91
2022-11-05T19:00:02.277Z,76377.94
2022-11-05T19:02:30.336Z,76375.91
2022-11-05T19:05:27.305Z,76382.00
2022-11-05T19:07:47.466Z,76386.09
2022-11-05T19:10:15.312Z,76392.22
2022-11-05T19:12:43.377Z,76392.22
2022-11-05T19:15:11.642Z,76396.28
2022-11-05T19:17:39.436Z,76404.44
2022-11-05T19:20:09.263Z,76400.38
2022-11-05T19:22:37.332Z,76400.38
2022-11-05T19:25:07.738Z,76400.38
2022-11-05T19:27:37.526Z,76408.53
2022-11-05T19:30:06.043Z,76408.53
2022-11-05T19:32:33.848Z,76408.53
2022-11-05T19:35:01.624Z,76408.53
2022-11-05T19:37:29.454Z,76408.53
2022-11-05T19:39:57.242Z,76406.47
2022-11-05T19:42:27.290Z,76412.59
2022-11-05T19:44:55.130Z,76414.63
2022-11-05T19:47:22.978Z,76412.59
2022-11-05T19:49:50.737Z,76418.72
2022-11-05T19:52:18.639Z,76416.69
2022-11-05T19:54:47.057Z,76412.59
2022-11-05T19:57:15.880Z,76416.69
2022-11-05T19:59:45.029Z,76420.75
2022-11-05T20:02:16.255Z,76422.78
2022-11-05T20:04:44.936Z,76424.84
2022-11-05T20:07:12.767Z,76437.06
2022-11-05T20:09:40.884Z,76428.91
2022-11-05T20:12:09.239Z,76432.97
2022-11-05T20:14:39.195Z,76437.06
2022-11-05T20:17:09.382Z,76430.94
2022-11-05T20:19:37.257Z,76437.06
2022-11-05T20:22:05.086Z,76437.06
2022-11-05T20:24:33.480Z,76441.16
2022-11-05T20:27:01.603Z,76439.09
2022-11-05T20:29:35.238Z,76445.22
2022-11-05T20:32:03.684Z,76441.16
2022-11-05T20:34:34.052Z,76445.22
2022-11-05T20:37:02.349Z,76439.09
2022-11-05T20:39:30.493Z,76437.06
2022-11-05T20:42:00.593Z,76445.22
2022-11-05T20:44:29.026Z,76441.16
2022-11-05T20:46:57.127Z,76441.16
2022-11-05T20:49:25.999Z,76445.22
2022-11-05T20:51:55.532Z,76449.28
2022-11-05T20:54:23.601Z,76455.41
2022-11-05T20:56:51.851Z,76459.50
2022-11-05T20:59:19.699Z,76461.53
2022-11-05T21:01:47.998Z,76469.69
2022-11-05T21:04:15.965Z,76465.63
2022-11-05T21:06:43.805Z,76469.69
2022-11-05T21:09:13.364Z,76473.75
2022-11-05T21:11:58.641Z,76475.81
2022-11-05T21:14:26.625Z,76473.75
2022-11-05T21:16:54.501Z,76486.00
2022-11-05T21:19:24.012Z,76486.00
2022-11-05T21:21:52.098Z,76486.00
2022-11-05T21:24:21.565Z,76465.63
2022-11-05T21:26:50.345Z,76455.41
2022-11-05T21:29:18.992Z,76461.53
2022-11-05T21:31:47.139Z,76453.38
2022-11-05T21:34:14.925Z,76469.69
2022-11-05T21:36:42.797Z,76479.88
2022-11-05T21:39:13.701Z,76494.16
2022-11-05T21:41:44.037Z,76500.28
2022-11-05T21:44:13.000Z,76498.22
2022-11-05T21:46:42.036Z,76500.28
2022-11-05T21:49:11.145Z,76502.31
2022-11-05T21:51:57.019Z,76508.44
2022-11-05T21:54:42.293Z,76518.63
2022-11-05T21:57:41.270Z,76522.69
2022-11-05T22:00:12.006Z,76532.91
2022-11-05T22:02:39.857Z,76536.97
2022-11-05T22:05:08.608Z,76536.97
2022-11-05T22:07:38.733Z,76545.13
2022-11-05T22:10:13.281Z,76547.16
2022-11-05T22:12:45.559Z,76551.25
2022-11-05T22:15:14.197Z,76551.25
2022-11-05T22:17:46.645Z,76555.31
2022-11-05T22:20:16.625Z,76577.75
2022-11-05T22:22:45.265Z,76587.94
2022-11-05T22:25:14.467Z,76583.88
2022-11-05T22:27:43.823Z,76587.94
2022-11-05T22:30:15.612Z,76594.06
2022-11-05T22:32:43.702Z,76592.03
2022-11-05T22:35:11.674Z,76594.06
2022-11-05T22:37:41.121Z,76600.19
2022-11-05T22:40:09.850Z,76612.41
2022-11-05T22:42:37.740Z,76616.50
2022-11-05T22:45:06.508Z,76620.56
2022-11-05T22:47:35.759Z,76620.56
2022-11-05T22:50:03.961Z,76616.50
2022-11-05T22:52:32.681Z,76620.56
2022-11-05T22:55:02.588Z,76620.56
2022-11-05T22:57:30.381Z,76620.56
2022-11-05T22:59:58.149Z,76620.56
2022-11-05T23:02:26.518Z,76618.53
2022-11-05T23:04:55.763Z,76616.50
2022-11-05T23:07:40.940Z,76618.53
2022-11-05T23:10:27.814Z,76624.66
2022-11-05T23:12:56.337Z,76645.03
2022-11-05T23:15:41.492Z,76645.03
2022-11-05T23:18:27.594Z,76649.13
2022-11-05T23:21:16.107Z,76647.09
2022-11-05T23:24:05.404Z,76640.97
2022-11-05T23:26:52.690Z,76651.16
2022-11-05T23:29:22.659Z,76645.03
2022-11-05T23:32:08.956Z,76640.97
2022-11-05T23:34:36.993Z,76638.94
2022-11-05T23:37:23.551Z,76636.91
2022-11-05T23:39:51.627Z,76634.84
2022-11-05T23:42:37.401Z,76636.91
2022-11-05T23:45:23.342Z,76634.84
2022-11-05T23:48:08.391Z,76628.72
2022-11-05T23:50:39.763Z,76630.78
2022-11-05T23:53:09.870Z,76618.53
2022-11-05T23:55:37.965Z,76614.47
2022-11-05T23:58:05.822Z,76620.56
